Time;durP1;ratioP1;P1;durP2;ratioP2;P2;SDS_P1;SDS_P2;PMS_P1;PMS_P2;Temp;Humidity;BMP_temperature;BMP_pressure;BME280_temperature;BME280_humidity;BME280_pressure;Samples;Min_cycle;Max_cycle;Signal;HPM_P1;HPM_P2
2023/03/08 00:08:06;;;;;;;31.98;11.85;;;2.50;99.90;;;;;;20529054;28;20039;-77
2023/03/08 00:18:06;;;;;;;24.63;10.07;;;2.50;99.90;;;;;;20504069;28;20540;-76
2023/03/08 00:28:07;;;;;;;22.23;9.52;;;2.60;99.90;;;;;;20504393;29;20078;-74
2023/03/08 00:38:08;;;;;;;23.13;10.40;;;2.40;99.90;;;;;;20502385;28;20038;-76
2023/03/08 00:48:09;;;;;;;22.65;9.95;;;1.80;99.90;;;;;;20503987;29;20490;-77
2023/03/08 00:58:09;;;;;;;24.95;10.93;;;1.50;99.90;;;;;;20502454;28;20031;-77
2023/03/08 01:08:12;;;;;;;28.52;11.40;;;1.50;99.90;;;;;;20557389;28;20031;-76
2023/03/08 01:18:13;;;;;;;31.55;11.35;;;1.50;99.90;;;;;;20581528;28;20034;-78
2023/03/08 01:28:13;;;;;;;27.67;11.45;;;1.10;99.90;;;;;;20588378;28;20061;-77
2023/03/08 01:38:14;;;;;;;26.25;11.48;;;0.80;99.90;;;;;;20594672;28;20478;-77
2023/03/08 01:48:16;;;;;;;31.20;12.20;;;0.60;99.90;;;;;;20595887;28;20107;-77
2023/03/08 01:58:33;;;;;;;29.17;11.80;;;0.40;99.90;;;;;;20593687;28;20130;-77
2023/03/08 02:08:34;;;;;;;33.35;11.85;;;0.40;99.90;;;;;;20593926;28;20086;-77
2023/03/08 02:18:35;;;;;;;30.70;11.80;;;0.40;99.90;;;;;;20611282;28;20035;-77
2023/03/08 02:28:37;;;;;;;29.27;10.80;;;0.10;99.90;;;;;;20637235;28;20037;-76
2023/03/08 02:38:38;;;;;;;26.08;11.48;;;0.30;99.90;;;;;;20610487;28;20034;-77
2023/03/08 02:48:39;;;;;;;27.70;12.00;;;0.30;99.90;;;;;;20589699;28;20035;-76
2023/03/08 02:58:39;;;;;;;26.45;9.75;;;0.30;99.90;;;;;;20589534;28;20524;-76
2023/03/08 03:08:40;;;;;;;31.40;10.68;;;0.30;99.90;;;;;;20588453;28;20537;-76
2023/03/08 03:18:41;;;;;;;26.48;10.25;;;0.30;99.90;;;;;;20588638;28;20077;-77
2023/03/08 03:28:43;;;;;;;24.08;9.75;;;0.30;99.90;;;;;;20587038;28;20035;-76
2023/03/08 03:38:44;;;;;;;24.92;10.15;;;0.40;99.90;;;;;;20585837;28;20031;-77
2023/03/08 03:48:46;;;;;;;28.45;11.85;;;0.70;99.90;;;;;;20585025;28;20122;-77
2023/03/08 03:58:50;;;;;;;24.83;10.07;;;0.60;99.90;;;;;;20585162;28;20039;-77
2023/03/08 04:08:57;;;;;;;27.27;11.38;;;0.40;99.90;;;;;;20584309;28;20082;-78
2023/03/08 04:19:02;;;;;;;24.13;10.52;;;0.70;99.90;;;;;;20582761;28;20042;-77
2023/03/08 04:29:05;;;;;;;19.92;9.32;;;0.80;99.90;;;;;;20583022;28;20050;-76
2023/03/08 04:39:07;;;;;;;27.83;9.82;;;1.00;99.90;;;;;;20581841;28;20039;-76
2023/03/08 04:49:09;;;;;;;24.63;9.27;;;1.10;99.90;;;;;;20597666;28;20389;-76
2023/03/08 04:59:16;;;;;;;25.92;10.80;;;1.20;99.90;;;;;;20581325;28;20089;-76
2023/03/08 05:09:18;;;;;;;34.53;11.07;;;1.30;99.90;;;;;;20594927;28;20053;-76
2023/03/08 05:19:23;;;;;;;29.75;11.30;;;1.60;99.90;;;;;;20581275;28;20086;-76
2023/03/08 05:29:26;;;;;;;29.45;10.65;;;1.80;99.90;;;;;;20601510;28;20375;-77
2023/03/08 05:39:29;;;;;;;24.02;11.10;;;1.80;99.90;;;;;;20595160;28;20030;-77
2023/03/08 05:49:44;;;;;;;26.70;10.70;;;1.70;99.90;;;;;;20596733;28;20031;-77
2023/03/08 05:59:46;;;;;;;23.15;10.48;;;1.60;99.90;;;;;;20580489;28;20166;-78
2023/03/08 06:09:50;;;;;;;26.00;10.63;;;1.70;99.90;;;;;;20583377;28;20037;-76
2023/03/08 06:19:52;;;;;;;26.35;11.80;;;1.90;99.90;;;;;;20611674;28;20329;-76
2023/03/08 06:29:54;;;;;;;29.60;11.80;;;1.90;99.90;;;;;;20671391;28;20436;-77
2023/03/08 06:39:56;;;;;;;28.27;11.80;;;2.00;99.90;;;;;;20583654;28;20082;-77
2023/03/08 06:49:57;;;;;;;26.70;11.65;;;1.70;99.90;;;;;;20590338;28;20445;-77
2023/03/08 06:59:59;;;;;;;20.45;11.05;;;2.00;99.90;;;;;;20663339;28;20534;-77
2023/03/08 07:09:59;;;;;;;64.20;26.88;;;2.40;99.90;;;;;;20604657;28;20031;-75
2023/03/08 07:20:04;;;;;;;32.03;13.25;;;2.50;99.90;;;;;;20604484;28;20035;-78
2023/03/08 07:30:08;;;;;;;28.23;12.55;;;2.50;99.90;;;;;;20589318;28;20039;-77
2023/03/08 07:40:10;;;;;;;30.40;12.23;;;2.80;99.90;;;;;;20587806;28;20027;-76
2023/03/08 07:50:12;;;;;;;33.13;13.98;;;3.00;99.90;;;;;;20585542;28;20457;-77
2023/03/08 08:00:13;;;;;;;29.45;13.15;;;3.20;99.90;;;;;;20586652;28;20114;-77
2023/03/08 08:10:14;;;;;;;33.22;12.77;;;3.40;99.90;;;;;;20585543;28;20443;-77
2023/03/08 08:20:15;;;;;;;28.13;11.30;;;3.60;99.90;;;;;;20585327;28;20027;-77
2023/03/08 08:30:16;;;;;;;33.10;13.73;;;3.90;99.90;;;;;;20584263;28;20045;-77
2023/03/08 08:40:17;;;;;;;32.05;13.23;;;4.20;99.90;;;;;;20583434;28;20041;-76
2023/03/08 08:50:17;;;;;;;28.92;11.20;;;4.50;99.90;;;;;;20587600;28;20035;-78
2023/03/08 09:00:18;;;;;;;;;;;5.00;99.90;;;;;;20590079;28;20109;-76
2023/03/08 09:10:20;;;;;;;29.38;13.73;;;5.40;99.90;;;;;;20596629;28;19917;-77
2023/03/08 09:20:21;;;;;;;30.73;13.32;;;5.50;99.90;;;;;;20587740;28;20054;-76
2023/03/08 09:30:21;;;;;;;;;;;5.50;99.90;;;;;;20588407;28;20234;-78
2023/03/08 09:40:26;;;;;;;43.40;17.13;;;5.60;99.90;;;;;;20677029;28;19914;-78
2023/03/08 09:50:48;;;;;;;38.67;15.90;;;5.80;99.90;;;;;;20692357;28;20497;-79
2023/03/08 10:00:50;;;;;;;29.95;14.52;;;5.90;99.90;;;;;;20690148;28;20023;-78
2023/03/08 10:10:59;;;;;;;;;;;6.00;99.90;;;;;;20610061;28;20031;-77
2023/03/08 10:21:01;;;;;;;31.42;15.13;;;5.90;99.90;;;;;;20612617;28;19913;-78
2023/03/08 10:31:15;;;;;;;31.35;12.07;;;6.00;99.90;;;;;;20611697;28;20042;-73
2023/03/08 10:41:17;;;;;;;16.27;7.85;;;6.30;99.90;;;;;;20609672;28;20050;-77
2023/03/08 10:51:20;;;;;;;36.15;16.27;;;6.50;99.90;;;;;;20612727;28;20035;-78
2023/03/08 11:01:27;;;;;;;39.15;16.83;;;6.70;99.90;;;;;;20610277;28;20074;-78
2023/03/08 11:11:38;;;;;;;33.67;15.25;;;6.80;99.90;;;;;;20603090;28;20031;-79
2023/03/08 11:22:04;;;;;;;30.63;15.17;;;7.00;99.90;;;;;;20631045;28;20058;-78
2023/03/08 11:32:28;;;;;;;17.27;8.55;;;7.10;99.90;;;;;;20621142;28;20034;-79
2023/03/08 11:42:33;;;;;;;38.30;17.10;;;7.20;99.90;;;;;;20538382;29;20023;-79
2023/03/08 11:52:59;;;;;;;33.05;14.73;;;7.20;99.90;;;;;;20534030;29;20046;-79
2023/03/08 12:03:08;;;;;;;46.45;16.00;;;7.10;99.90;;;;;;20539835;28;20058;-75
2023/03/08 12:13:27;;;;;;;33.97;14.40;;;7.10;99.90;;;;;;20615547;28;20554;-80
2023/03/08 12:24:02;;;;;;;29.10;14.60;;;7.20;99.90;;;;;;20608996;28;20030;-79
2023/03/08 12:34:13;;;;;;;29.40;15.85;;;7.40;99.90;;;;;;20587079;28;20054;-79
2023/03/08 12:44:29;;;;;;;32.05;12.93;;;7.50;99.90;;;;;;20599495;28;20102;-78
2023/03/08 12:54:34;;;;;;;31.40;15.57;;;7.50;99.90;;;;;;20601655;28;20062;-77
2023/03/08 13:04:37;;;;;;;14.57;6.65;;;7.70;99.90;;;;;;20585772;28;20110;-77
2023/03/08 13:14:43;;;;;;;7.88;4.65;;;7.80;99.90;;;;;;20581460;28;20022;-77
2023/03/08 13:24:54;;;;;;;7.03;3.47;;;8.10;99.90;;;;;;20587658;28;20109;-77
2023/03/08 13:35:01;;;;;;;3.57;2.43;;;8.30;99.90;;;;;;20596516;28;20063;-75
2023/03/08 13:45:16;;;;;;;3.67;2.22;;;8.40;99.90;;;;;;20596982;28;20304;-76
2023/03/08 13:55:21;;;;;;;14.25;5.28;;;8.60;99.90;;;;;;20612287;28;20023;-77
2023/03/08 14:05:31;;;;;;;24.80;5.38;;;8.90;99.90;;;;;;20568420;28;20034;-76
2023/03/08 14:15:36;;;;;;;2.78;1.55;;;9.10;99.90;;;;;;20593431;28;20130;-76
2023/03/08 14:25:37;;;;;;;2.22;1.20;;;9.20;99.90;;;;;;20590913;28;20031;-76
2023/03/08 14:35:42;;;;;;;1.63;0.90;;;9.70;99.90;;;;;;20533629;28;20037;-76
2023/03/08 14:45:59;;;;;;;1.30;0.88;;;9.90;99.90;;;;;;20541354;28;20508;-76
2023/03/08 14:56:09;;;;;;;1.77;0.98;;;9.90;99.90;;;;;;20566442;28;20031;-77
2023/03/08 15:06:24;;;;;;;2.60;0.50;;;11.40;99.90;;;;;;20546869;28;20039;-76
2023/03/08 15:16:25;;;;;;;2.30;0.52;;;11.70;99.90;;;;;;20534329;28;20040;-76
2023/03/08 15:26:30;;;;;;;2.05;0.57;;;11.50;99.90;;;;;;20513329;28;20042;-77
2023/03/08 15:36:34;;;;;;;1.42;0.38;;;11.70;99.90;;;;;;20542754;28;20190;-77
2023/03/08 15:46:35;;;;;;;0.40;0.28;;;11.70;99.90;;;;;;20588942;28;20038;-79
2023/03/08 15:56:35;;;;;;;0.20;0.20;;;12.10;99.90;;;;;;20605101;28;20085;-78
2023/03/08 16:06:36;;;;;;;0.73;0.40;;;12.10;99.90;;;;;;20587248;28;20019;-78
2023/03/08 16:16:37;;;;;;;0.53;0.20;;;11.90;99.90;;;;;;20568979;28;20161;-77
2023/03/08 16:26:38;;;;;;;1.50;0.40;;;11.60;99.90;;;;;;20591198;28;20089;-78
2023/03/08 16:36:39;;;;;;;2.13;0.70;;;11.00;99.90;;;;;;20594051;28;20118;-77
2023/03/08 16:46:40;;;;;;;0.40;0.40;;;10.60;99.90;;;;;;20583596;28;20039;-78
2023/03/08 16:56:42;;;;;;;4.90;0.60;;;10.30;99.90;;;;;;20583786;28;20038;-77
2023/03/08 17:06:44;;;;;;;2.47;0.60;;;10.00;99.90;;;;;;20582499;28;20516;-77
2023/03/08 17:16:45;;;;;;;7.13;1.92;;;9.70;99.90;;;;;;20581129;28;20073;-78
2023/03/08 17:26:49;;;;;;;3.73;0.90;;;9.50;99.90;;;;;;20588333;28;20030;-78
2023/03/08 17:36:50;;;;;;;7.35;1.88;;;9.40;99.90;;;;;;20568949;28;20086;-77
2023/03/08 17:46:51;;;;;;;2.92;0.98;;;9.30;99.90;;;;;;20588019;28;20031;-78
2023/03/08 17:56:52;;;;;;;3.83;2.20;;;9.20;99.90;;;;;;20554048;28;20542;-77
2023/03/08 18:06:53;;;;;;;6.90;3.40;;;9.10;99.90;;;;;;20563045;28;20041;-77
2023/03/08 18:16:54;;;;;;;6.27;3.20;;;9.00;99.90;;;;;;20583194;28;20031;-77
2023/03/08 18:26:56;;;;;;;3.67;2.57;;;8.90;99.90;;;;;;20594048;28;20089;-77
2023/03/08 18:36:57;;;;;;;6.97;3.28;;;9.00;99.90;;;;;;20597423;28;20101;-77
2023/03/08 18:46:58;;;;;;;8.27;4.87;;;8.70;99.90;;;;;;20592082;28;20050;-78
2023/03/08 18:56:59;;;;;;;6.63;3.50;;;8.70;99.90;;;;;;20620250;28;20517;-80
2023/03/08 19:06:59;;;;;;;5.87;3.63;;;8.70;99.90;;;;;;20615764;28;20086;-79
2023/03/08 19:17:00;;;;;;;6.20;4.00;;;8.50;99.90;;;;;;20604516;28;20107;-78
2023/03/08 19:27:02;;;;;;;7.57;4.37;;;8.50;99.90;;;;;;20563758;28;20034;-80
2023/03/08 19:37:04;;;;;;;8.70;5.75;;;8.30;99.90;;;;;;20597762;28;20043;-77
2023/03/08 19:47:05;;;;;;;10.75;4.90;;;8.30;99.90;;;;;;20648068;28;20038;-79
2023/03/08 19:57:07;;;;;;;7.43;4.72;;;8.20;99.90;;;;;;20635558;28;20097;-79
2023/03/08 20:07:08;;;;;;;7.72;3.13;;;8.40;99.90;;;;;;20527492;28;20411;-81
2023/03/08 20:17:09;;;;;;;11.67;8.10;;;8.70;99.90;;;;;;20650012;28;20113;-81
2023/03/08 20:27:10;;;;;;;19.53;9.80;;;8.70;99.90;;;;;;20690046;28;20026;-78
2023/03/08 20:37:10;;;;;;;7.93;5.27;;;8.40;99.90;;;;;;20690524;28;20026;-80
2023/03/08 20:47:11;;;;;;;15.07;9.37;;;8.70;99.90;;;;;;20644051;28;20113;-79
2023/03/08 20:57:12;;;;;;;7.22;4.40;;;8.60;99.90;;;;;;20612344;28;20038;-81
2023/03/08 21:07:13;;;;;;;4.50;2.90;;;8.40;99.90;;;;;;20607986;28;20031;-78
2023/03/08 21:17:14;;;;;;;5.93;2.40;;;8.70;99.90;;;;;;20610787;28;20038;-79
2023/03/08 21:27:15;;;;;;;7.07;2.37;;;8.90;99.90;;;;;;20610588;28;20402;-81
2023/03/08 21:37:15;;;;;;;1.40;0.70;;;9.30;99.90;;;;;;20611916;28;20042;-81
2023/03/08 21:47:16;;;;;;;4.47;0.83;;;10.70;99.90;;;;;;20612868;28;20034;-79
2023/03/08 21:57:17;;;;;;;3.93;1.60;;;11.00;99.90;;;;;;20618639;28;20047;-81
2023/03/08 22:07:18;;;;;;;2.83;1.07;;;10.50;99.90;;;;;;20616745;28;20394;-80
2023/03/08 22:17:18;;;;;;;1.00;0.80;;;10.70;99.90;;;;;;20614872;28;20098;-81
2023/03/08 22:27:21;;;;;;;7.87;1.37;;;10.70;99.90;;;;;;20614222;28;20026;-80
2023/03/08 22:37:22;;;;;;;2.78;1.10;;;10.80;99.90;;;;;;20619413;28;20034;-81
2023/03/08 22:47:23;;;;;;;1.40;0.67;;;11.00;99.90;;;;;;20613811;28;20085;-81
2023/03/08 22:57:24;;;;;;;0.80;0.43;;;11.10;99.90;;;;;;20611580;28;20501;-78
2023/03/08 23:07:25;;;;;;;2.33;0.73;;;11.20;99.90;;;;;;20591793;28;20404;-78
2023/03/08 23:17:25;;;;;;;0.60;0.40;;;11.30;99.90;;;;;;20663480;28;20038;-78
2023/03/08 23:27:26;;;;;;;0.93;0.60;;;11.50;99.90;;;;;;20654425;28;20642;-78
2023/03/08 23:37:27;;;;;;;0.80;0.60;;;11.50;99.90;;;;;;20589338;28;20037;-77
2023/03/08 23:47:28;;;;;;;0.97;0.50;;;11.60;99.90;;;;;;20629643;28;20027;-76
2023/03/08 23:57:28;;;;;;;1.03;0.50;;;11.40;99.90;;;;;;20521709;28;20035;-77
